sensor_id;sensor_type;location;lat;lon;timestamp;P1;durP1;ratioP1;P2;durP2;ratioP2
57029;SDS011;42920;45.306;20.448;2022-09-12T00:00:00;3.10;;;1.35;;
57029;SDS011;42920;45.306;20.448;2022-09-12T00:02:26;5.50;;;1.73;;
57029;SDS011;42920;45.306;20.448;2022-09-12T00:04:51;2.58;;;1.20;;
57029;SDS011;42920;45.306;20.448;2022-09-12T00:07:17;2.70;;;1.30;;
57029;SDS011;42920;45.306;20.448;2022-09-12T00:09:43;2.72;;;1.15;;
57029;SDS011;42920;45.306;20.448;2022-09-12T00:12:08;2.40;;;1.17;;
57029;SDS011;42920;45.306;20.448;2022-09-12T00:14:34;4.60;;;1.40;;
57029;SDS011;42920;45.306;20.448;2022-09-12T00:17:00;4.72;;;1.40;;
57029;SDS011;42920;45.306;20.448;2022-09-12T00:19:27;2.83;;;1.17;;
57029;SDS011;42920;45.306;20.448;2022-09-12T00:21:54;4.78;;;1.60;;
57029;SDS011;42920;45.306;20.448;2022-09-12T00:24:20;5.30;;;1.30;;
57029;SDS011;42920;45.306;20.448;2022-09-12T00:26:46;2.80;;;1.10;;
57029;SDS011;42920;45.306;20.448;2022-09-12T00:29:21;1.63;;;1.05;;
57029;SDS011;42920;45.306;20.448;2022-09-12T00:31:47;2.80;;;1.30;;
57029;SDS011;42920;45.306;20.448;2022-09-12T00:34:13;2.35;;;1.40;;
57029;SDS011;42920;45.306;20.448;2022-09-12T00:36:39;1.52;;;1.10;;
57029;SDS011;42920;45.306;20.448;2022-09-12T00:39:05;4.65;;;1.33;;
57029;SDS011;42920;45.306;20.448;2022-09-12T00:41:36;3.53;;;1.13;;
57029;SDS011;42920;45.306;20.448;2022-09-12T00:44:40;3.20;;;1.38;;
57029;SDS011;42920;45.306;20.448;2022-09-12T00:51:51;7.90;;;1.77;;
57029;SDS011;42920;45.306;20.448;2022-09-12T00:54:35;5.85;;;1.42;;
57029;SDS011;42920;45.306;20.448;2022-09-12T00:57:05;6.25;;;1.90;;
57029;SDS011;42920;45.306;20.448;2022-09-12T00:59:45;2.72;;;1.40;;
57029;SDS011;42920;45.306;20.448;2022-09-12T01:02:18;6.97;;;1.58;;
57029;SDS011;42920;45.306;20.448;2022-09-12T01:04:45;2.50;;;1.40;;
57029;SDS011;42920;45.306;20.448;2022-09-12T01:07:12;3.17;;;1.25;;
57029;SDS011;42920;45.306;20.448;2022-09-12T01:09:39;6.03;;;1.50;;
57029;SDS011;42920;45.306;20.448;2022-09-12T01:12:08;3.38;;;1.48;;
57029;SDS011;42920;45.306;20.448;2022-09-12T01:14:35;3.92;;;1.50;;
57029;SDS011;42920;45.306;20.448;2022-09-12T01:17:01;4.97;;;1.50;;
57029;SDS011;42920;45.306;20.448;2022-09-12T01:19:42;5.00;;;1.50;;
57029;SDS011;42920;45.306;20.448;2022-09-12T01:47:17;2.17;;;1.25;;
57029;SDS011;42920;45.306;20.448;2022-09-12T01:52:41;5.97;;;1.90;;
57029;SDS011;42920;45.306;20.448;2022-09-12T01:55:22;3.30;;;1.83;;
57029;SDS011;42920;45.306;20.448;2022-09-12T01:58:05;5.60;;;1.80;;
57029;SDS011;42920;45.306;20.448;2022-09-12T02:01:02;2.78;;;1.30;;
57029;SDS011;42920;45.306;20.448;2022-09-12T02:04:08;5.75;;;1.60;;
57029;SDS011;42920;45.306;20.448;2022-09-12T02:06:48;6.18;;;1.52;;
57029;SDS011;42920;45.306;20.448;2022-09-12T02:12:07;3.13;;;1.42;;
57029;SDS011;42920;45.306;20.448;2022-09-12T02:14:36;3.25;;;1.67;;
57029;SDS011;42920;45.306;20.448;2022-09-12T02:17:08;5.05;;;1.65;;
57029;SDS011;42920;45.306;20.448;2022-09-12T02:19:49;2.92;;;1.50;;
57029;SDS011;42920;45.306;20.448;2022-09-12T02:22:21;3.20;;;1.40;;
57029;SDS011;42920;45.306;20.448;2022-09-12T02:24:51;2.33;;;1.40;;
57029;SDS011;42920;45.306;20.448;2022-09-12T02:27:44;3.47;;;1.70;;
57029;SDS011;42920;45.306;20.448;2022-09-12T02:30:13;3.30;;;1.83;;
57029;SDS011;42920;45.306;20.448;2022-09-12T02:35:28;5.63;;;1.70;;
57029;SDS011;42920;45.306;20.448;2022-09-12T02:38:07;3.00;;;1.70;;
57029;SDS011;42920;45.306;20.448;2022-09-12T02:40:52;3.67;;;1.55;;
57029;SDS011;42920;45.306;20.448;2022-09-12T02:43:18;5.05;;;2.08;;
57029;SDS011;42920;45.306;20.448;2022-09-12T02:45:44;2.55;;;1.50;;
57029;SDS011;42920;45.306;20.448;2022-09-12T02:50:43;3.22;;;1.48;;
57029;SDS011;42920;45.306;20.448;2022-09-12T02:53:09;3.97;;;1.23;;
57029;SDS011;42920;45.306;20.448;2022-09-12T02:55:36;1.67;;;1.08;;
57029;SDS011;42920;45.306;20.448;2022-09-12T02:58:05;1.83;;;1.35;;
57029;SDS011;42920;45.306;20.448;2022-09-12T03:00:37;2.65;;;1.40;;
57029;SDS011;42920;45.306;20.448;2022-09-12T03:05:47;2.22;;;1.10;;
57029;SDS011;42920;45.306;20.448;2022-09-12T03:14:11;3.63;;;1.50;;
57029;SDS011;42920;45.306;20.448;2022-09-12T03:22:28;2.90;;;1.10;;
57029;SDS011;42920;45.306;20.448;2022-09-12T03:25:09;2.45;;;1.30;;
57029;SDS011;42920;45.306;20.448;2022-09-12T03:28:18;2.13;;;1.05;;
57029;SDS011;42920;45.306;20.448;2022-09-12T03:30:39;3.20;;;1.50;;
57029;SDS011;42920;45.306;20.448;2022-09-12T03:33:09;3.95;;;1.40;;
57029;SDS011;42920;45.306;20.448;2022-09-12T03:35:36;5.10;;;1.67;;
57029;SDS011;42920;45.306;20.448;2022-09-12T03:38:02;5.93;;;1.52;;
57029;SDS011;42920;45.306;20.448;2022-09-12T03:40:29;3.88;;;1.20;;
57029;SDS011;42920;45.306;20.448;2022-09-12T03:42:54;2.20;;;1.42;;
57029;SDS011;42920;45.306;20.448;2022-09-12T03:45:20;3.53;;;1.63;;
57029;SDS011;42920;45.306;20.448;2022-09-12T03:47:46;5.60;;;2.20;;
57029;SDS011;42920;45.306;20.448;2022-09-12T03:50:12;4.18;;;1.92;;
57029;SDS011;42920;45.306;20.448;2022-09-12T03:52:37;3.75;;;1.67;;
57029;SDS011;42920;45.306;20.448;2022-09-12T03:55:03;2.40;;;1.55;;
57029;SDS011;42920;45.306;20.448;2022-09-12T03:57:29;2.17;;;1.58;;
57029;SDS011;42920;45.306;20.448;2022-09-12T03:59:55;4.97;;;1.88;;
57029;SDS011;42920;45.306;20.448;2022-09-12T04:02:21;2.20;;;1.33;;
57029;SDS011;42920;45.306;20.448;2022-09-12T04:04:47;5.60;;;1.52;;
57029;SDS011;42920;45.306;20.448;2022-09-12T04:07:13;4.90;;;1.50;;
57029;SDS011;42920;45.306;20.448;2022-09-12T04:09:40;10.77;;;2.10;;
57029;SDS011;42920;45.306;20.448;2022-09-12T04:12:06;3.25;;;1.67;;
57029;SDS011;42920;45.306;20.448;2022-09-12T04:14:32;3.13;;;1.85;;
57029;SDS011;42920;45.306;20.448;2022-09-12T04:16:58;5.55;;;2.20;;
57029;SDS011;42920;45.306;20.448;2022-09-12T04:19:26;3.83;;;2.05;;
57029;SDS011;42920;45.306;20.448;2022-09-12T04:21:52;5.10;;;1.90;;
57029;SDS011;42920;45.306;20.448;2022-09-12T04:24:18;3.15;;;1.95;;
57029;SDS011;42920;45.306;20.448;2022-09-12T04:26:43;7.47;;;2.40;;
57029;SDS011;42920;45.306;20.448;2022-09-12T04:29:12;3.03;;;1.83;;
57029;SDS011;42920;45.306;20.448;2022-09-12T04:31:39;18.95;;;2.65;;
57029;SDS011;42920;45.306;20.448;2022-09-12T04:34:05;2.95;;;1.73;;
57029;SDS011;42920;45.306;20.448;2022-09-12T04:36:32;8.07;;;2.42;;
57029;SDS011;42920;45.306;20.448;2022-09-12T04:38:59;6.65;;;3.10;;
57029;SDS011;42920;45.306;20.448;2022-09-12T04:41:30;6.30;;;2.22;;
57029;SDS011;42920;45.306;20.448;2022-09-12T04:44:01;3.53;;;1.85;;
57029;SDS011;42920;45.306;20.448;2022-09-12T04:46:36;4.90;;;2.08;;
57029;SDS011;42920;45.306;20.448;2022-09-12T04:49:04;4.43;;;2.13;;
57029;SDS011;42920;45.306;20.448;2022-09-12T04:51:31;4.65;;;2.20;;
57029;SDS011;42920;45.306;20.448;2022-09-12T04:54:00;3.40;;;1.98;;
57029;SDS011;42920;45.306;20.448;2022-09-12T04:56:30;7.93;;;1.92;;
57029;SDS011;42920;45.306;20.448;2022-09-12T04:58:56;5.68;;;2.35;;
57029;SDS011;42920;45.306;20.448;2022-09-12T05:01:25;5.50;;;1.98;;
57029;SDS011;42920;45.306;20.448;2022-09-12T05:03:52;3.67;;;2.15;;
57029;SDS011;42920;45.306;20.448;2022-09-12T05:06:20;6.35;;;2.58;;
57029;SDS011;42920;45.306;20.448;2022-09-12T05:08:48;2.88;;;1.90;;
57029;SDS011;42920;45.306;20.448;2022-09-12T05:11:15;3.85;;;2.20;;
57029;SDS011;42920;45.306;20.448;2022-09-12T05:13:42;6.63;;;2.30;;
57029;SDS011;42920;45.306;20.448;2022-09-12T05:16:12;2.90;;;1.98;;
57029;SDS011;42920;45.306;20.448;2022-09-12T05:18:40;3.40;;;2.20;;
57029;SDS011;42920;45.306;20.448;2022-09-12T05:21:07;4.18;;;2.58;;
57029;SDS011;42920;45.306;20.448;2022-09-12T05:23:35;4.30;;;2.70;;
57029;SDS011;42920;45.306;20.448;2022-09-12T05:26:02;5.45;;;2.50;;
57029;SDS011;42920;45.306;20.448;2022-09-12T05:28:33;4.53;;;2.63;;
57029;SDS011;42920;45.306;20.448;2022-09-12T05:31:02;7.97;;;2.67;;
57029;SDS011;42920;45.306;20.448;2022-09-12T05:33:34;5.10;;;2.85;;
57029;SDS011;42920;45.306;20.448;2022-09-12T05:36:00;5.63;;;2.60;;
57029;SDS011;42920;45.306;20.448;2022-09-12T05:38:27;6.80;;;3.30;;
57029;SDS011;42920;45.306;20.448;2022-09-12T05:41:03;9.05;;;3.05;;
57029;SDS011;42920;45.306;20.448;2022-09-12T05:43:38;6.00;;;2.67;;
57029;SDS011;42920;45.306;20.448;2022-09-12T05:46:10;9.82;;;3.33;;
57029;SDS011;42920;45.306;20.448;2022-09-12T05:48:40;6.55;;;3.30;;
57029;SDS011;42920;45.306;20.448;2022-09-12T05:51:09;5.40;;;3.10;;
57029;SDS011;42920;45.306;20.448;2022-09-12T05:53:36;7.38;;;3.30;;
57029;SDS011;42920;45.306;20.448;2022-09-12T05:56:05;5.45;;;3.15;;
57029;SDS011;42920;45.306;20.448;2022-09-12T05:58:38;7.15;;;3.55;;
57029;SDS011;42920;45.306;20.448;2022-09-12T06:01:08;9.88;;;3.78;;
57029;SDS011;42920;45.306;20.448;2022-09-12T06:03:39;5.55;;;3.60;;
57029;SDS011;42920;45.306;20.448;2022-09-12T06:06:09;5.15;;;3.22;;
57029;SDS011;42920;45.306;20.448;2022-09-12T06:08:42;7.38;;;3.75;;
57029;SDS011;42920;45.306;20.448;2022-09-12T06:11:10;5.65;;;3.95;;
57029;SDS011;42920;45.306;20.448;2022-09-12T06:13:39;6.13;;;4.05;;
57029;SDS011;42920;45.306;20.448;2022-09-12T06:18:39;8.50;;;3.88;;
57029;SDS011;42920;45.306;20.448;2022-09-12T06:21:08;5.53;;;3.53;;
57029;SDS011;42920;45.306;20.448;2022-09-12T06:23:36;6.10;;;3.47;;
57029;SDS011;42920;45.306;20.448;2022-09-12T06:26:03;7.07;;;4.10;;
57029;SDS011;42920;45.306;20.448;2022-09-12T06:28:31;8.85;;;3.90;;
57029;SDS011;42920;45.306;20.448;2022-09-12T06:31:02;6.53;;;4.03;;
57029;SDS011;42920;45.306;20.448;2022-09-12T06:33:39;7.28;;;4.22;;
57029;SDS011;42920;45.306;20.448;2022-09-12T06:36:11;9.32;;;4.68;;
57029;SDS011;42920;45.306;20.448;2022-09-12T06:38:40;6.75;;;4.28;;
57029;SDS011;42920;45.306;20.448;2022-09-12T06:41:07;6.03;;;3.90;;
57029;SDS011;42920;45.306;20.448;2022-09-12T06:43:35;10.38;;;5.18;;
57029;SDS011;42920;45.306;20.448;2022-09-12T06:46:01;8.98;;;4.28;;
57029;SDS011;42920;45.306;20.448;2022-09-12T06:48:27;6.57;;;4.35;;
57029;SDS011;42920;45.306;20.448;2022-09-12T06:50:54;7.13;;;4.00;;
57029;SDS011;42920;45.306;20.448;2022-09-12T06:53:20;6.07;;;4.28;;
57029;SDS011;42920;45.306;20.448;2022-09-12T06:55:46;6.97;;;4.63;;
57029;SDS011;42920;45.306;20.448;2022-09-12T06:58:12;5.68;;;4.20;;
57029;SDS011;42920;45.306;20.448;2022-09-12T07:00:38;8.88;;;4.13;;
57029;SDS011;42920;45.306;20.448;2022-09-12T07:03:04;6.32;;;4.25;;
57029;SDS011;42920;45.306;20.448;2022-09-12T07:05:32;6.10;;;5.10;;
57029;SDS011;42920;45.306;20.448;2022-09-12T07:07:58;9.43;;;5.18;;
57029;SDS011;42920;45.306;20.448;2022-09-12T07:10:23;11.52;;;4.47;;
57029;SDS011;42920;45.306;20.448;2022-09-12T07:12:49;7.88;;;4.60;;
57029;SDS011;42920;45.306;20.448;2022-09-12T07:15:15;5.53;;;4.10;;
57029;SDS011;42920;45.306;20.448;2022-09-12T07:17:41;5.97;;;3.63;;
57029;SDS011;42920;45.306;20.448;2022-09-12T07:20:07;5.90;;;3.70;;
57029;SDS011;42920;45.306;20.448;2022-09-12T07:22:33;7.93;;;4.15;;
57029;SDS011;42920;45.306;20.448;2022-09-12T07:24:58;8.13;;;4.65;;
57029;SDS011;42920;45.306;20.448;2022-09-12T07:27:24;19.20;;;4.13;;
57029;SDS011;42920;45.306;20.448;2022-09-12T07:29:50;7.78;;;4.15;;
57029;SDS011;42920;45.306;20.448;2022-09-12T07:32:16;9.00;;;4.30;;
57029;SDS011;42920;45.306;20.448;2022-09-12T07:34:41;6.28;;;3.92;;
57029;SDS011;42920;45.306;20.448;2022-09-12T07:37:09;7.45;;;4.25;;
57029;SDS011;42920;45.306;20.448;2022-09-12T07:39:35;6.22;;;3.88;;
57029;SDS011;42920;45.306;20.448;2022-09-12T07:42:01;7.40;;;4.13;;
57029;SDS011;42920;45.306;20.448;2022-09-12T07:44:27;6.82;;;4.40;;
57029;SDS011;42920;45.306;20.448;2022-09-12T07:46:53;7.63;;;4.25;;
57029;SDS011;42920;45.306;20.448;2022-09-12T07:49:19;7.07;;;3.70;;
57029;SDS011;42920;45.306;20.448;2022-09-12T07:51:45;6.63;;;3.72;;
57029;SDS011;42920;45.306;20.448;2022-09-12T07:54:10;8.15;;;4.13;;
57029;SDS011;42920;45.306;20.448;2022-09-12T07:56:36;4.97;;;3.63;;
57029;SDS011;42920;45.306;20.448;2022-09-12T07:59:03;6.57;;;4.30;;
57029;SDS011;42920;45.306;20.448;2022-09-12T08:01:29;8.27;;;3.95;;
57029;SDS011;42920;45.306;20.448;2022-09-12T08:03:55;5.32;;;3.70;;
57029;SDS011;42920;45.306;20.448;2022-09-12T08:06:22;4.45;;;3.55;;
57029;SDS011;42920;45.306;20.448;2022-09-12T08:08:49;6.57;;;3.50;;
57029;SDS011;42920;45.306;20.448;2022-09-12T08:11:18;5.13;;;3.67;;
57029;SDS011;42920;45.306;20.448;2022-09-12T08:13:45;7.80;;;3.88;;
57029;SDS011;42920;45.306;20.448;2022-09-12T08:16:11;7.53;;;3.10;;
57029;SDS011;42920;45.306;20.448;2022-09-12T08:18:39;4.82;;;3.20;;
57029;SDS011;42920;45.306;20.448;2022-09-12T08:21:15;7.72;;;3.78;;
57029;SDS011;42920;45.306;20.448;2022-09-12T08:23:42;15.57;;;3.75;;
57029;SDS011;42920;45.306;20.448;2022-09-12T08:26:09;4.55;;;3.53;;
57029;SDS011;42920;45.306;20.448;2022-09-12T08:28:38;6.38;;;3.45;;
57029;SDS011;42920;45.306;20.448;2022-09-12T08:31:09;4.40;;;2.90;;
57029;SDS011;42920;45.306;20.448;2022-09-12T08:33:36;4.07;;;2.80;;
57029;SDS011;42920;45.306;20.448;2022-09-12T08:36:03;15.35;;;3.30;;
57029;SDS011;42920;45.306;20.448;2022-09-12T08:38:41;4.68;;;2.75;;
57029;SDS011;42920;45.306;20.448;2022-09-12T08:41:10;16.42;;;4.18;;
57029;SDS011;42920;45.306;20.448;2022-09-12T08:46:55;5.65;;;3.20;;
57029;SDS011;42920;45.306;20.448;2022-09-12T08:51:59;5.28;;;2.83;;
57029;SDS011;42920;45.306;20.448;2022-09-12T08:54:31;8.18;;;3.45;;
57029;SDS011;42920;45.306;20.448;2022-09-12T08:57:00;6.55;;;2.85;;
57029;SDS011;42920;45.306;20.448;2022-09-12T08:59:43;4.70;;;3.10;;
57029;SDS011;42920;45.306;20.448;2022-09-12T09:08:12;5.63;;;2.70;;
57029;SDS011;42920;45.306;20.448;2022-09-12T09:10:59;4.82;;;2.55;;
57029;SDS011;42920;45.306;20.448;2022-09-12T09:16:36;5.10;;;3.20;;
57029;SDS011;42920;45.306;20.448;2022-09-12T09:19:20;4.07;;;2.58;;
57029;SDS011;42920;45.306;20.448;2022-09-12T09:21:56;5.18;;;2.70;;
57029;SDS011;42920;45.306;20.448;2022-09-12T09:24:27;7.63;;;2.67;;
57029;SDS011;42920;45.306;20.448;2022-09-12T09:29:50;4.97;;;2.63;;
57029;SDS011;42920;45.306;20.448;2022-09-12T09:32:25;7.18;;;3.17;;
57029;SDS011;42920;45.306;20.448;2022-09-12T09:35:14;9.35;;;3.33;;
57029;SDS011;42920;45.306;20.448;2022-09-12T09:37:44;7.50;;;2.80;;
57029;SDS011;42920;45.306;20.448;2022-09-12T09:40:40;8.57;;;3.53;;
57029;SDS011;42920;45.306;20.448;2022-09-12T09:43:22;6.20;;;3.55;;
57029;SDS011;42920;45.306;20.448;2022-09-12T09:45:52;10.98;;;4.20;;
57029;SDS011;42920;45.306;20.448;2022-09-12T09:50:55;5.65;;;2.85;;
57029;SDS011;42920;45.306;20.448;2022-09-12T09:56:26;4.85;;;3.13;;
57029;SDS011;42920;45.306;20.448;2022-09-12T09:59:09;4.72;;;2.60;;
57029;SDS011;42920;45.306;20.448;2022-09-12T10:01:52;4.88;;;2.65;;
57029;SDS011;42920;45.306;20.448;2022-09-12T10:04:31;11.73;;;2.88;;
57029;SDS011;42920;45.306;20.448;2022-09-12T10:07:00;3.88;;;2.70;;
57029;SDS011;42920;45.306;20.448;2022-09-12T10:11:58;9.80;;;2.95;;
57029;SDS011;42920;45.306;20.448;2022-09-12T10:17:21;5.35;;;2.70;;
57029;SDS011;42920;45.306;20.448;2022-09-12T10:19:53;5.35;;;2.95;;
57029;SDS011;42920;45.306;20.448;2022-09-12T10:22:23;4.18;;;2.70;;
57029;SDS011;42920;45.306;20.448;2022-09-12T10:24:55;5.40;;;3.10;;
57029;SDS011;42920;45.306;20.448;2022-09-12T10:27:28;4.47;;;2.70;;
57029;SDS011;42920;45.306;20.448;2022-09-12T10:32:39;6.45;;;3.40;;
57029;SDS011;42920;45.306;20.448;2022-09-12T10:35:15;4.38;;;2.83;;
57029;SDS011;42920;45.306;20.448;2022-09-12T10:37:59;4.47;;;2.92;;
57029;SDS011;42920;45.306;20.448;2022-09-12T10:40:39;5.25;;;2.88;;
57029;SDS011;42920;45.306;20.448;2022-09-12T10:45:55;6.82;;;3.78;;
57029;SDS011;42920;45.306;20.448;2022-09-12T10:48:29;4.53;;;3.05;;
57029;SDS011;42920;45.306;20.448;2022-09-12T10:50:56;5.90;;;3.47;;
57029;SDS011;42920;45.306;20.448;2022-09-12T10:53:27;4.57;;;2.95;;
57029;SDS011;42920;45.306;20.448;2022-09-12T10:56:09;4.65;;;2.72;;
57029;SDS011;42920;45.306;20.448;2022-09-12T11:06:44;8.07;;;3.08;;
57029;SDS011;42920;45.306;20.448;2022-09-12T11:12:19;6.97;;;3.00;;
57029;SDS011;42920;45.306;20.448;2022-09-12T11:15:13;4.78;;;2.42;;
57029;SDS011;42920;45.306;20.448;2022-09-12T11:26:19;3.90;;;2.58;;
57029;SDS011;42920;45.306;20.448;2022-09-12T11:40:22;4.50;;;2.10;;
57029;SDS011;42920;45.306;20.448;2022-09-12T11:42:52;3.95;;;1.80;;
57029;SDS011;42920;45.306;20.448;2022-09-12T11:45:23;5.22;;;2.45;;
57029;SDS011;42920;45.306;20.448;2022-09-12T11:47:54;9.32;;;2.30;;
57029;SDS011;42920;45.306;20.448;2022-09-12T11:50:28;6.50;;;2.05;;
57029;SDS011;42920;45.306;20.448;2022-09-12T11:53:15;6.20;;;2.42;;
57029;SDS011;42920;45.306;20.448;2022-09-12T11:55:54;5.93;;;2.65;;
57029;SDS011;42920;45.306;20.448;2022-09-12T11:58:26;3.13;;;2.25;;
57029;SDS011;42920;45.306;20.448;2022-09-12T12:00:58;5.22;;;2.83;;
57029;SDS011;42920;45.306;20.448;2022-09-12T12:03:43;5.50;;;2.67;;
57029;SDS011;42920;45.306;20.448;2022-09-12T12:06:11;3.65;;;2.00;;
57029;SDS011;42920;45.306;20.448;2022-09-12T12:08:45;3.75;;;2.40;;
57029;SDS011;42920;45.306;20.448;2022-09-12T12:11:14;4.80;;;2.80;;
57029;SDS011;42920;45.306;20.448;2022-09-12T12:13:54;3.85;;;2.67;;
57029;SDS011;42920;45.306;20.448;2022-09-12T12:16:30;5.68;;;2.92;;
57029;SDS011;42920;45.306;20.448;2022-09-12T12:19:43;6.90;;;4.43;;
57029;SDS011;42920;45.306;20.448;2022-09-12T12:21:55;6.57;;;4.63;;
57029;SDS011;42920;45.306;20.448;2022-09-12T12:24:31;8.05;;;3.55;;
57029;SDS011;42920;45.306;20.448;2022-09-12T12:27:02;3.35;;;2.20;;
57029;SDS011;42920;45.306;20.448;2022-09-12T12:29:46;6.32;;;2.95;;
57029;SDS011;42920;45.306;20.448;2022-09-12T12:34:42;5.55;;;2.58;;
57029;SDS011;42920;45.306;20.448;2022-09-12T12:44:57;4.25;;;2.05;;
57029;SDS011;42920;45.306;20.448;2022-09-12T12:50:26;3.30;;;2.10;;
57029;SDS011;42920;45.306;20.448;2022-09-12T12:55:24;5.07;;;2.47;;
57029;SDS011;42920;45.306;20.448;2022-09-12T12:57:55;4.18;;;2.25;;
57029;SDS011;42920;45.306;20.448;2022-09-12T13:05:40;5.53;;;3.47;;
57029;SDS011;42920;45.306;20.448;2022-09-12T13:10:49;3.90;;;2.85;;
57029;SDS011;42920;45.306;20.448;2022-09-12T13:13:31;4.93;;;2.80;;
57029;SDS011;42920;45.306;20.448;2022-09-12T13:16:05;6.28;;;2.97;;
57029;SDS011;42920;45.306;20.448;2022-09-12T13:18:39;4.65;;;2.50;;
57029;SDS011;42920;45.306;20.448;2022-09-12T13:21:13;5.10;;;2.42;;
57029;SDS011;42920;45.306;20.448;2022-09-12T13:23:39;6.45;;;3.78;;
57029;SDS011;42920;45.306;20.448;2022-09-12T13:26:10;3.72;;;2.10;;
57029;SDS011;42920;45.306;20.448;2022-09-12T13:28:38;4.63;;;2.63;;
57029;SDS011;42920;45.306;20.448;2022-09-12T13:33:55;7.60;;;2.13;;
57029;SDS011;42920;45.306;20.448;2022-09-12T13:36:27;5.32;;;3.30;;
57029;SDS011;42920;45.306;20.448;2022-09-12T13:39:20;8.88;;;5.50;;
57029;SDS011;42920;45.306;20.448;2022-09-12T13:42:01;4.38;;;2.78;;
57029;SDS011;42920;45.306;20.448;2022-09-12T13:44:51;7.70;;;3.33;;
57029;SDS011;42920;45.306;20.448;2022-09-12T13:47:24;7.30;;;3.20;;
57029;SDS011;42920;45.306;20.448;2022-09-12T13:49:54;15.27;;;7.10;;
57029;SDS011;42920;45.306;20.448;2022-09-12T13:52:22;4.50;;;2.53;;
57029;SDS011;42920;45.306;20.448;2022-09-12T13:54:52;6.47;;;2.72;;
57029;SDS011;42920;45.306;20.448;2022-09-12T14:00:05;8.10;;;3.40;;
57029;SDS011;42920;45.306;20.448;2022-09-12T14:02:44;10.07;;;2.95;;
57029;SDS011;42920;45.306;20.448;2022-09-12T14:05:23;5.28;;;3.10;;
57029;SDS011;42920;45.306;20.448;2022-09-12T14:10:25;6.28;;;2.60;;
57029;SDS011;42920;45.306;20.448;2022-09-12T14:12:57;7.95;;;3.30;;
57029;SDS011;42920;45.306;20.448;2022-09-12T14:15:29;5.55;;;2.58;;
57029;SDS011;42920;45.306;20.448;2022-09-12T14:17:58;11.30;;;3.03;;
57029;SDS011;42920;45.306;20.448;2022-09-12T14:20:26;7.88;;;3.03;;
57029;SDS011;42920;45.306;20.448;2022-09-12T14:25:45;5.95;;;2.72;;
57029;SDS011;42920;45.306;20.448;2022-09-12T14:28:13;4.57;;;2.70;;
57029;SDS011;42920;45.306;20.448;2022-09-12T14:30:55;7.45;;;2.70;;
57029;SDS011;42920;45.306;20.448;2022-09-12T14:33:31;3.90;;;2.05;;
57029;SDS011;42920;45.306;20.448;2022-09-12T14:36:22;5.90;;;2.58;;
57029;SDS011;42920;45.306;20.448;2022-09-12T14:38:55;3.42;;;2.20;;
57029;SDS011;42920;45.306;20.448;2022-09-12T14:41:26;3.30;;;2.13;;
57029;SDS011;42920;45.306;20.448;2022-09-12T14:43:59;4.20;;;2.00;;
57029;SDS011;42920;45.306;20.448;2022-09-12T14:46:33;3.70;;;2.20;;
57029;SDS011;42920;45.306;20.448;2022-09-12T14:49:05;7.05;;;2.13;;
57029;SDS011;42920;45.306;20.448;2022-09-12T14:51:35;7.10;;;1.80;;
57029;SDS011;42920;45.306;20.448;2022-09-12T14:54:03;4.13;;;2.15;;
57029;SDS011;42920;45.306;20.448;2022-09-12T14:56:36;5.80;;;1.88;;
57029;SDS011;42920;45.306;20.448;2022-09-12T15:07:41;7.43;;;2.28;;
57029;SDS011;42920;45.306;20.448;2022-09-12T15:15:30;3.55;;;2.35;;
57029;SDS011;42920;45.306;20.448;2022-09-12T15:17:56;4.88;;;2.55;;
57029;SDS011;42920;45.306;20.448;2022-09-12T15:20:23;4.50;;;2.22;;
57029;SDS011;42920;45.306;20.448;2022-09-12T15:22:50;6.28;;;2.03;;
57029;SDS011;42920;45.306;20.448;2022-09-12T15:25:16;4.40;;;2.03;;
57029;SDS011;42920;45.306;20.448;2022-09-12T15:27:43;4.88;;;1.80;;
57029;SDS011;42920;45.306;20.448;2022-09-12T15:30:12;6.70;;;2.00;;
57029;SDS011;42920;45.306;20.448;2022-09-12T15:32:39;5.32;;;2.00;;
57029;SDS011;42920;45.306;20.448;2022-09-12T15:37:42;2.78;;;1.80;;
57029;SDS011;42920;45.306;20.448;2022-09-12T15:40:09;8.85;;;2.17;;
57029;SDS011;42920;45.306;20.448;2022-09-12T15:42:35;9.52;;;2.20;;
57029;SDS011;42920;45.306;20.448;2022-09-12T15:45:01;3.80;;;2.13;;
57029;SDS011;42920;45.306;20.448;2022-09-12T15:47:38;4.93;;;2.20;;
57029;SDS011;42920;45.306;20.448;2022-09-12T15:50:04;6.18;;;2.20;;
57029;SDS011;42920;45.306;20.448;2022-09-12T15:52:30;7.50;;;2.50;;
57029;SDS011;42920;45.306;20.448;2022-09-12T15:54:56;12.63;;;2.40;;
57029;SDS011;42920;45.306;20.448;2022-09-12T15:57:22;5.80;;;2.10;;
57029;SDS011;42920;45.306;20.448;2022-09-12T15:59:48;6.32;;;2.38;;
57029;SDS011;42920;45.306;20.448;2022-09-12T16:02:13;8.93;;;2.70;;
57029;SDS011;42920;45.306;20.448;2022-09-12T16:04:39;3.83;;;2.00;;
57029;SDS011;42920;45.306;20.448;2022-09-12T16:07:05;3.53;;;2.05;;
57029;SDS011;42920;45.306;20.448;2022-09-12T16:09:30;7.35;;;2.47;;
57029;SDS011;42920;45.306;20.448;2022-09-12T16:11:56;9.73;;;2.47;;
57029;SDS011;42920;45.306;20.448;2022-09-12T16:14:22;8.75;;;2.30;;
57029;SDS011;42920;45.306;20.448;2022-09-12T16:16:51;6.35;;;2.00;;
57029;SDS011;42920;45.306;20.448;2022-09-12T16:19:18;9.10;;;1.88;;
57029;SDS011;42920;45.306;20.448;2022-09-12T16:21:44;5.18;;;1.90;;
57029;SDS011;42920;45.306;20.448;2022-09-12T16:24:10;8.93;;;2.55;;
57029;SDS011;42920;45.306;20.448;2022-09-12T16:26:36;8.40;;;2.25;;
57029;SDS011;42920;45.306;20.448;2022-09-12T16:29:01;6.32;;;2.33;;
57029;SDS011;42920;45.306;20.448;2022-09-12T16:31:27;5.22;;;1.80;;
57029;SDS011;42920;45.306;20.448;2022-09-12T16:33:53;8.38;;;2.17;;
57029;SDS011;42920;45.306;20.448;2022-09-12T16:36:20;8.88;;;1.95;;
57029;SDS011;42920;45.306;20.448;2022-09-12T16:38:46;7.50;;;1.98;;
57029;SDS011;42920;45.306;20.448;2022-09-12T16:41:14;16.20;;;2.22;;
57029;SDS011;42920;45.306;20.448;2022-09-12T16:43:41;4.45;;;2.00;;
57029;SDS011;42920;45.306;20.448;2022-09-12T16:46:08;10.95;;;2.10;;
57029;SDS011;42920;45.306;20.448;2022-09-12T16:48:36;6.30;;;2.15;;
57029;SDS011;42920;45.306;20.448;2022-09-12T16:51:05;7.20;;;2.53;;
57029;SDS011;42920;45.306;20.448;2022-09-12T16:53:31;8.40;;;2.85;;
57029;SDS011;42920;45.306;20.448;2022-09-12T16:55:59;6.20;;;2.40;;
57029;SDS011;42920;45.306;20.448;2022-09-12T16:58:25;8.25;;;2.45;;
57029;SDS011;42920;45.306;20.448;2022-09-12T17:01:02;5.82;;;2.72;;
57029;SDS011;42920;45.306;20.448;2022-09-12T17:03:29;4.47;;;2.25;;
57029;SDS011;42920;45.306;20.448;2022-09-12T17:05:56;8.95;;;2.70;;
57029;SDS011;42920;45.306;20.448;2022-09-12T17:08:26;4.03;;;2.35;;
57029;SDS011;42920;45.306;20.448;2022-09-12T17:10:57;7.60;;;2.50;;
57029;SDS011;42920;45.306;20.448;2022-09-12T17:13:25;7.25;;;2.50;;
57029;SDS011;42920;45.306;20.448;2022-09-12T17:15:51;5.35;;;2.35;;
57029;SDS011;42920;45.306;20.448;2022-09-12T17:18:17;5.05;;;2.00;;
57029;SDS011;42920;45.306;20.448;2022-09-12T17:20:42;7.20;;;2.50;;
57029;SDS011;42920;45.306;20.448;2022-09-12T17:23:08;5.70;;;2.30;;
57029;SDS011;42920;45.306;20.448;2022-09-12T17:25:34;11.30;;;2.30;;
57029;SDS011;42920;45.306;20.448;2022-09-12T17:28:00;9.63;;;3.15;;
57029;SDS011;42920;45.306;20.448;2022-09-12T17:30:29;8.57;;;2.72;;
57029;SDS011;42920;45.306;20.448;2022-09-12T17:32:58;6.60;;;2.80;;
57029;SDS011;42920;45.306;20.448;2022-09-12T17:35:24;11.07;;;3.03;;
57029;SDS011;42920;45.306;20.448;2022-09-12T17:37:49;7.43;;;2.50;;
57029;SDS011;42920;45.306;20.448;2022-09-12T17:40:15;9.05;;;2.88;;
57029;SDS011;42920;45.306;20.448;2022-09-12T17:42:41;6.70;;;2.70;;
57029;SDS011;42920;45.306;20.448;2022-09-12T17:45:08;8.80;;;2.70;;